»·PEaware :: N149CD KSBP-KVNY

N149CD :: KSBP-KVNY

FLIGHT INFORMATION

Flight Status: Arrived
Operator: Privately registered:
United States
More flights under this callsign
Pilot: Nathan E. (30132)
Aircraft: CIRRUS VISIONJET
(SF50)
More flights by this aircraft type
Origin: KSBP San Luis Co Regl
United States
Destination: KVNY Van Nuys
United States
More flights between these airports :: More routes between these airports
Route: RZS V386 FIM
File this flight plan on PilotEdge
Remarks: TEC route SBAP38
Altitude:
(Current/Filed)
11,000ft
Speed:
(Current/Filed)
300kts
Departed: 27-Dec-20 04:52 PM
Arrived: 27-Dec-20 05:32 PM
Distance/Time
Traveled:
123nm/0:40
Distance/Time
To Go:
Arrived

Flight Plot

Page will automatically refresh every two minutes.

Flight plan parsing failed; only flown route is shown


Map Options




Map Legend


Flown Route
Filed Route
Departure Airport
Arrival Airport
Navaid (VOR, NDB)
Fix

Horizontal Profiles

Position Reports

Time Latitude Longitude Heading Altitude Ground
Speed
27-Dec-20 16:19 35.238243 -120.639986 308 216ft 0kts
27-Dec-20 16:20 35.238243 -120.639986 308 216ft 0kts
27-Dec-20 16:21 35.238243 -120.639986 308 216ft 0kts
27-Dec-20 16:22 35.238243 -120.639986 308 216ft 0kts
27-Dec-20 16:22 35.238243 -120.639986 308 216ft 0kts
27-Dec-20 16:23 35.238243 -120.639986 308 216ft 0kts
27-Dec-20 16:25 35.238243 -120.639986 308 216ft 0kts
27-Dec-20 16:26 35.238243 -120.639986 308 216ft 0kts
27-Dec-20 16:27 35.238243 -120.639986 308 216ft 0kts
27-Dec-20 16:27 35.238243 -120.639986 308 216ft 0kts
27-Dec-20 16:28 35.238243 -120.639986 308 216ft 0kts
27-Dec-20 16:30 35.238243 -120.639986 308 216ft 0kts
27-Dec-20 16:30 35.238243 -120.639986 308 216ft 0kts
27-Dec-20 16:33 35.238243 -120.639986 308 216ft 0kts
27-Dec-20 16:34 35.238243 -120.639986 308 216ft 0kts
27-Dec-20 16:35 35.238243 -120.639986 308 216ft 0kts
27-Dec-20 16:36 35.238243 -120.639986 308 216ft 0kts
27-Dec-20 16:37 35.238243 -120.639986 308 216ft 0kts
27-Dec-20 16:38 35.238243 -120.639986 308 216ft 0kts
27-Dec-20 16:39 35.238243 -120.639986 308 216ft 0kts
27-Dec-20 16:40 35.238243 -120.639986 308 216ft 0kts
27-Dec-20 16:41 35.238243 -120.639986 308 216ft 0kts
27-Dec-20 16:42 35.238243 -120.639986 308 216ft 0kts
27-Dec-20 16:43 35.238243 -120.639986 308 216ft 0kts
27-Dec-20 16:44 35.238243 -120.639986 308 216ft 0kts
27-Dec-20 16:45 35.238243 -120.639986 308 216ft 0kts
27-Dec-20 16:46 35.238332 -120.641074 304 216ft 12kts
27-Dec-20 16:47 35.240385 -120.644476 304 216ft 11kts
27-Dec-20 16:48 35.242529 -120.648236 306 216ft 14kts
27-Dec-20 16:49 35.242668 -120.649018 232 216ft 0kts
27-Dec-20 16:50 35.242272 -120.649372 191 216ft 12kts
27-Dec-20 16:51 35.223154 -120.627137 171 1103ft 170kts
27-Dec-20 16:52 35.180712 -120.637774 192 4898ft 163kts
27-Dec-20 16:53 35.125102 -120.651741 192 5023ft 216kts
27-Dec-20 16:54 35.074581 -120.663474 192 7989ft 208kts
27-Dec-20 16:55 35.011507 -120.677967 192 8022ft 254kts
27-Dec-20 16:56 34.940841 -120.693683 192 8018ft 261kts
27-Dec-20 16:57 34.869142 -120.708180 188 8019ft 263kts
27-Dec-20 16:58 34.825381 -120.640891 127 8191ft 285kts
27-Dec-20 16:59 34.790691 -120.551160 118 9227ft 297kts
27-Dec-20 17:00 34.757669 -120.458659 117 10252ft 298kts
27-Dec-20 17:01 34.723865 -120.364121 117 11034ft 316kts
27-Dec-20 17:02 34.687738 -120.263352 118 11021ft 330kts
27-Dec-20 17:03 34.650870 -120.160855 118 11018ft 332kts
27-Dec-20 17:04 34.613743 -120.057983 118 11018ft 333kts
27-Dec-20 17:05 34.576535 -119.955217 118 11021ft 333kts
27-Dec-20 17:06 34.539079 -119.852099 118 11030ft 333kts
27-Dec-20 17:07 34.505975 -119.747259 103 11045ft 340kts
27-Dec-20 17:08 34.486704 -119.634906 105 11038ft 340kts
27-Dec-20 17:09 34.467572 -119.522607 105 11038ft 340kts
27-Dec-20 17:10 34.448441 -119.410524 105 11039ft 340kts
27-Dec-20 17:11 34.429126 -119.297898 105 11034ft 341kts
27-Dec-20 17:12 34.409805 -119.185864 105 11038ft 340kts
27-Dec-20 17:13 34.390982 -119.077048 106 11035ft 296kts
27-Dec-20 17:14 34.374219 -118.981206 106 11043ft 281kts
27-Dec-20 17:15 34.359206 -118.895458 104 10258ft 243kts
27-Dec-20 17:16 34.377245 -118.820811 69 9242ft 221kts
27-Dec-20 17:17 34.399387 -118.755662 68 8315ft 199kts
27-Dec-20 17:18 34.419867 -118.695231 69 7457ft 189kts
27-Dec-20 17:19 34.439622 -118.636803 70 6625ft 185kts
27-Dec-20 17:20 34.459044 -118.579252 70 6007ft 181kts
27-Dec-20 17:21 34.473714 -118.523314 114 6009ft 166kts
27-Dec-20 17:22 34.436492 -118.511602 176 5395ft 130kts
27-Dec-20 17:23 34.402186 -118.508485 176 4387ft 120kts
27-Dec-20 17:24 34.370444 -118.505549 175 3772ft 103kts
27-Dec-20 17:25 34.344536 -118.503108 175 3729ft 81kts
27-Dec-20 17:26 34.319941 -118.500785 175 3234ft 92kts
27-Dec-20 17:27 34.294359 -118.498378 174 2656ft 92kts
27-Dec-20 17:28 34.268978 -118.495975 174 2077ft 91kts
27-Dec-20 17:29 34.243609 -118.493575 174 1486ft 89kts
27-Dec-20 17:30 34.219070 -118.491215 174 898ft 87kts
27-Dec-20 17:31 34.208468 -118.490861 204 805ft 0kts
27-Dec-20 17:32 34.207011 -118.491276 174 805ft 12kts
27-Dec-20 17:33 34.206303 -118.492563 179 805ft 0kts

Navigation Log

Ident Type
Flight plan parsing failed, navigation log unavailable